createdAt,value
2022-10-14T00:00:10.438Z,23.52
2022-10-14T00:02:20.480Z,21.38
2022-10-14T00:04:30.157Z,20.45
2022-10-14T00:06:41.437Z,19.80
2022-10-14T00:08:50.642Z,20.15
2022-10-14T00:10:59.316Z,20.27
2022-10-14T00:13:08.236Z,20.92
2022-10-14T00:15:16.581Z,19.17
2022-10-14T00:17:24.995Z,19.17
2022-10-14T00:19:34.518Z,19.13
2022-10-14T00:21:47.798Z,23.30
2022-10-14T00:23:56.161Z,21.90
2022-10-14T00:26:05.581Z,21.90
2022-10-14T00:28:16.576Z,23.35
2022-10-14T00:30:25.552Z,24.55
2022-10-14T00:32:36.033Z,25.25
2022-10-14T00:34:44.338Z,21.42
2022-10-14T00:36:57.365Z,19.10
2022-10-14T00:39:05.841Z,22.23
2022-10-14T00:41:15.922Z,20.00
2022-10-14T00:43:30.147Z,21.45
2022-10-14T00:45:39.202Z,19.48
2022-10-14T00:47:47.820Z,22.00
2022-10-14T00:49:56.895Z,19.23
2022-10-14T00:52:11.911Z,21.70
2022-10-14T00:54:33.251Z,19.05
2022-10-14T00:56:42.825Z,19.50
2022-10-14T00:58:52.198Z,19.65
2022-10-14T01:01:00.740Z,20.85
2022-10-14T01:03:13.109Z,19.95
2022-10-14T01:05:23.911Z,21.08
2022-10-14T01:07:44.818Z,18.08
2022-10-14T01:10:01.721Z,22.70
2022-10-14T01:12:29.401Z,16.92
2022-10-14T01:14:50.537Z,17.77
2022-10-14T01:17:05.246Z,14.68
2022-10-14T01:19:29.907Z,16.63
2022-10-14T01:21:44.258Z,14.30
2022-10-14T01:24:23.726Z,14.93
2022-10-14T01:26:52.259Z,15.43
2022-10-14T01:29:16.668Z,18.15
2022-10-14T01:31:33.781Z,16.10
2022-10-14T01:33:47.324Z,15.13
2022-10-14T01:36:04.715Z,22.40
2022-10-14T01:38:16.647Z,21.83
2022-10-14T01:40:35.377Z,20.80
2022-10-14T01:42:46.128Z,16.50
2022-10-14T01:44:59.689Z,17.10
2022-10-14T01:47:12.622Z,18.23
2022-10-14T01:49:28.805Z,19.73
2022-10-14T01:51:44.387Z,19.08
2022-10-14T01:54:00.646Z,17.85
2022-10-14T01:56:14.954Z,18.83
2022-10-14T01:58:29.266Z,20.13
2022-10-14T02:00:38.343Z,20.48
2022-10-14T02:02:49.740Z,20.40
2022-10-14T02:04:58.107Z,19.52
2022-10-14T02:07:10.669Z,17.88
2022-10-14T02:09:28.169Z,20.98
2022-10-14T02:11:45.701Z,22.08
2022-10-14T02:14:07.351Z,24.10
2022-10-14T02:16:29.214Z,22.38
2022-10-14T02:18:44.537Z,21.42
2022-10-14T02:20:59.218Z,23.45
2022-10-14T02:23:14.311Z,22.60
2022-10-14T02:25:29.347Z,23.13
2022-10-14T02:27:39.783Z,22.38
2022-10-14T02:29:50.314Z,20.90
2022-10-14T02:32:00.013Z,20.13
2022-10-14T02:34:15.156Z,23.38
2022-10-14T02:36:26.095Z,19.60
2022-10-14T02:38:37.217Z,21.55
2022-10-14T02:40:48.255Z,21.00
2022-10-14T02:42:57.405Z,22.67
2022-10-14T02:45:08.762Z,20.73
2022-10-14T02:47:17.155Z,21.92
2022-10-14T02:49:28.142Z,20.95
2022-10-14T02:51:36.127Z,23.00
2022-10-14T02:53:44.337Z,26.25
2022-10-14T02:55:52.996Z,22.42
2022-10-14T02:58:01.473Z,21.77
2022-10-14T03:00:11.137Z,20.55
2022-10-14T03:02:20.117Z,20.33
2022-10-14T03:04:32.151Z,22.20
2022-10-14T03:06:42.043Z,21.95
2022-10-14T03:08:50.241Z,25.15
2022-10-14T03:10:58.762Z,21.27
2022-10-14T03:13:08.440Z,21.60
2022-10-14T03:15:22.683Z,27.55
2022-10-14T03:17:30.826Z,20.88
2022-10-14T03:19:46.424Z,20.52
2022-10-14T03:21:56.500Z,23.35
2022-10-14T03:24:04.785Z,21.15
2022-10-14T03:26:15.822Z,19.52
2022-10-14T03:28:28.936Z,21.27
2022-10-14T03:30:46.116Z,21.25
2022-10-14T03:32:59.101Z,19.90
2022-10-14T03:35:30.737Z,19.05
2022-10-14T03:37:40.357Z,20.55
2022-10-14T03:39:49.130Z,21.80
2022-10-14T03:41:59.829Z,21.92
2022-10-14T03:44:16.078Z,19.63
2022-10-14T03:46:36.901Z,18.40
2022-10-14T03:48:45.262Z,19.45
2022-10-14T03:50:56.886Z,22.10
2022-10-14T03:53:05.907Z,23.17
2022-10-14T03:55:17.697Z,22.17
2022-10-14T03:57:29.226Z,18.77
2022-10-14T03:59:40.081Z,20.90
2022-10-14T04:01:51.257Z,20.30
2022-10-14T04:04:07.439Z,22.70
2022-10-14T04:06:19.451Z,21.10
2022-10-14T04:08:28.241Z,20.15
2022-10-14T04:10:44.491Z,22.30
2022-10-14T04:12:58.749Z,19.80
2022-10-14T04:15:13.696Z,23.63
2022-10-14T04:17:40.929Z,24.98
2022-10-14T04:19:54.673Z,21.35
2022-10-14T04:22:05.460Z,23.17
2022-10-14T04:24:15.803Z,21.00
2022-10-14T04:26:30.853Z,23.80
2022-10-14T04:28:40.704Z,23.10
2022-10-14T04:30:55.076Z,23.27
2022-10-14T04:33:07.867Z,24.92
2022-10-14T04:35:16.223Z,25.00
2022-10-14T04:37:30.644Z,26.15
2022-10-14T04:40:01.470Z,27.17
2022-10-14T04:42:12.350Z,28.08
2022-10-14T04:44:21.551Z,26.85
2022-10-14T04:46:34.976Z,29.27
2022-10-14T04:48:44.090Z,25.42
2022-10-14T04:50:54.834Z,23.40
2022-10-14T04:53:18.558Z,25.80
2022-10-14T04:55:43.660Z,25.27
2022-10-14T04:57:52.675Z,24.42
2022-10-14T05:00:01.002Z,25.75
2022-10-14T05:02:25.991Z,22.67
2022-10-14T05:04:40.516Z,25.77
2022-10-14T05:06:49.884Z,22.15
2022-10-14T05:09:02.912Z,23.63
2022-10-14T05:11:11.177Z,24.73
2022-10-14T05:13:28.835Z,22.75
2022-10-14T05:15:42.949Z,26.35
2022-10-14T05:17:53.926Z,21.83
2022-10-14T05:20:11.741Z,27.45
2022-10-14T05:22:22.218Z,25.60
2022-10-14T05:24:33.890Z,26.73
2022-10-14T05:26:43.874Z,22.85
2022-10-14T05:28:55.484Z,24.73
2022-10-14T05:31:08.242Z,30.02
2022-10-14T05:33:24.414Z,24.35
2022-10-14T05:35:57.677Z,24.58
2022-10-14T05:38:04.326Z,26.27
2022-10-14T05:40:20.667Z,22.10
2022-10-14T05:42:29.100Z,26.95
2022-10-14T05:44:39.775Z,29.00
2022-10-14T05:46:48.890Z,22.92
2022-10-14T05:48:57.351Z,24.20
2022-10-14T05:51:06.701Z,24.70
2022-10-14T05:53:18.851Z,27.77
2022-10-14T05:55:37.187Z,23.60
2022-10-14T05:57:45.307Z,27.90
2022-10-14T05:59:56.988Z,25.05
2022-10-14T06:02:05.020Z,24.77
2022-10-14T06:04:20.588Z,31.23
2022-10-14T06:06:29.278Z,27.17
2022-10-14T06:08:37.260Z,25.63
2022-10-14T06:10:47.575Z,23.88
2022-10-14T06:12:55.845Z,25.90
2022-10-14T06:15:04.669Z,24.73
2022-10-14T06:17:13.472Z,23.33
2022-10-14T06:19:22.330Z,22.23
2022-10-14T06:21:31.410Z,24.42
2022-10-14T06:23:40.144Z,21.25
2022-10-14T06:25:51.250Z,24.45
2022-10-14T06:28:05.015Z,26.60
2022-10-14T06:30:15.315Z,20.63
2022-10-14T06:32:24.258Z,22.10
2022-10-14T06:34:33.025Z,21.90
2022-10-14T06:36:41.287Z,20.15
2022-10-14T06:38:49.700Z,21.00
2022-10-14T06:41:00.542Z,21.15
2022-10-14T06:43:09.141Z,22.48
2022-10-14T06:45:17.738Z,22.30
2022-10-14T06:47:25.778Z,23.55
2022-10-14T06:49:34.288Z,21.85
2022-10-14T06:51:42.545Z,20.83
2022-10-14T06:53:50.429Z,20.42
2022-10-14T06:56:06.454Z,18.45
2022-10-14T06:58:14.395Z,21.00
2022-10-14T07:00:22.701Z,18.13
2022-10-14T07:02:30.691Z,18.98
2022-10-14T07:04:39.306Z,19.52
2022-10-14T07:06:47.565Z,20.90
2022-10-14T07:08:56.037Z,18.63
2022-10-14T07:11:07.412Z,18.83
2022-10-14T07:13:15.289Z,21.45
2022-10-14T07:15:23.502Z,20.50
2022-10-14T07:17:31.621Z,17.70
2022-10-14T07:19:39.477Z,22.60
2022-10-14T07:21:48.354Z,18.02
2022-10-14T07:23:56.600Z,18.58
2022-10-14T07:26:07.469Z,17.60
2022-10-14T07:28:15.876Z,17.60
2022-10-14T07:30:24.234Z,18.05
2022-10-14T07:32:32.443Z,19.73
2022-10-14T07:34:40.655Z,18.10
2022-10-14T07:36:49.240Z,20.02
2022-10-14T07:38:57.296Z,19.20
2022-10-14T07:41:16.924Z,17.05
2022-10-14T07:43:24.846Z,20.30
2022-10-14T07:45:36.069Z,21.05
2022-10-14T07:47:44.197Z,18.27
2022-10-14T07:49:53.191Z,17.60
2022-10-14T07:52:01.695Z,19.50
2022-10-14T07:54:18.359Z,17.30
2022-10-14T07:56:29.693Z,16.30
2022-10-14T07:58:41.043Z,17.20
2022-10-14T08:00:53.891Z,18.30
2022-10-14T08:03:01.772Z,17.15
2022-10-14T08:05:36.352Z,16.67
2022-10-14T08:07:38.798Z,18.33
2022-10-14T08:09:47.488Z,16.77
2022-10-14T08:11:58.172Z,18.27
2022-10-14T08:14:06.739Z,16.13
2022-10-14T08:16:20.235Z,15.65
2022-10-14T08:18:28.954Z,15.25
2022-10-14T08:20:38.234Z,16.00
2022-10-14T08:22:46.688Z,16.55
2022-10-14T08:24:55.273Z,16.20
2022-10-14T08:27:08.284Z,16.70
2022-10-14T08:29:16.690Z,17.23
2022-10-14T08:31:25.494Z,17.55
2022-10-14T08:33:33.961Z,18.08
2022-10-14T08:35:42.274Z,16.33
2022-10-14T08:37:59.993Z,16.40
2022-10-14T08:40:10.121Z,16.85
2022-10-14T08:42:35.115Z,16.55
2022-10-14T08:44:48.473Z,20.70
2022-10-14T08:46:58.935Z,18.88
2022-10-14T08:49:15.026Z,14.18
2022-10-14T08:51:24.990Z,15.88
2022-10-14T08:53:39.636Z,15.63
2022-10-14T08:55:51.170Z,16.38
2022-10-14T08:58:11.344Z,15.82
2022-10-14T09:00:22.984Z,14.18
2022-10-14T09:02:45.796Z,14.35
2022-10-14T09:04:54.438Z,14.98
2022-10-14T09:07:03.183Z,11.90
2022-10-14T09:09:17.201Z,11.10
2022-10-14T09:11:28.598Z,12.50
2022-10-14T09:13:44.101Z,10.70
2022-10-14T09:15:59.820Z,11.18
2022-10-14T09:18:14.737Z,16.85
2022-10-14T09:20:25.808Z,10.27
2022-10-14T09:22:34.178Z,12.80
2022-10-14T09:24:42.387Z,12.40
2022-10-14T09:26:54.328Z,9.55
2022-10-14T09:29:05.557Z,10.45
2022-10-14T09:31:16.453Z,10.27
2022-10-14T09:33:25.536Z,9.50
2022-10-14T09:35:37.939Z,13.27
2022-10-14T09:37:46.563Z,17.83
2022-10-14T09:39:57.560Z,11.07
2022-10-14T09:42:06.373Z,11.38
2022-10-14T09:44:26.299Z,11.85
2022-10-14T09:46:35.654Z,11.90
2022-10-14T09:48:49.900Z,11.93
2022-10-14T09:51:00.721Z,12.60
2022-10-14T09:53:17.974Z,13.15
2022-10-14T09:55:37.759Z,11.85
2022-10-14T09:57:47.391Z,11.50
2022-10-14T10:00:01.465Z,10.90
2022-10-14T10:02:23.979Z,12.43
2022-10-14T10:04:39.202Z,11.02
2022-10-14T10:06:55.995Z,12.77
2022-10-14T10:09:04.579Z,13.70
2022-10-14T10:11:15.378Z,12.07
2022-10-14T10:13:25.229Z,11.35
2022-10-14T10:15:36.257Z,11.48
2022-10-14T10:17:45.029Z,10.75
2022-10-14T10:20:09.276Z,14.25
2022-10-14T10:22:28.149Z,11.13
2022-10-14T10:24:38.653Z,10.93
2022-10-14T10:26:47.839Z,9.75
2022-10-14T10:28:59.838Z,10.15
2022-10-14T10:31:30.654Z,13.30
2022-10-14T10:33:45.310Z,11.90
2022-10-14T10:36:20.557Z,14.02
2022-10-14T10:38:35.435Z,10.43
2022-10-14T10:40:51.083Z,10.05
2022-10-14T10:43:16.753Z,10.18
2022-10-14T10:45:41.652Z,9.80
2022-10-14T10:48:01.416Z,10.15
2022-10-14T10:50:27.505Z,9.50
2022-10-14T10:52:52.299Z,8.93
2022-10-14T10:55:07.213Z,9.65
2022-10-14T10:57:31.451Z,10.00
2022-10-14T10:59:56.418Z,8.65
2022-10-14T11:02:27.779Z,9.40
2022-10-14T11:04:49.068Z,10.50
2022-10-14T11:07:25.458Z,8.70
2022-10-14T11:09:55.804Z,12.25
2022-10-14T11:12:18.478Z,9.52
2022-10-14T11:14:46.906Z,12.20
2022-10-14T11:17:05.227Z,10.75
2022-10-14T11:19:23.926Z,9.48
2022-10-14T11:21:46.135Z,8.60
2022-10-14T11:24:07.773Z,9.90
2022-10-14T11:26:31.166Z,10.77
2022-10-14T11:28:49.119Z,9.05
2022-10-14T11:31:05.821Z,9.60
2022-10-14T11:33:30.563Z,8.35
2022-10-14T11:35:54.385Z,7.93
2022-10-14T11:38:32.651Z,7.65
2022-10-14T11:40:46.785Z,7.53
2022-10-14T11:43:08.904Z,5.95
2022-10-14T11:45:42.026Z,7.50
2022-10-14T11:47:53.772Z,6.18
2022-10-14T11:50:06.392Z,6.55
2022-10-14T11:52:21.067Z,6.40
2022-10-14T11:54:38.647Z,5.60
2022-10-14T11:56:51.152Z,5.45
2022-10-14T11:59:22.652Z,8.63
2022-10-14T12:01:38.079Z,5.10
2022-10-14T12:04:00.371Z,7.50
2022-10-14T12:06:18.208Z,4.28
2022-10-14T12:08:33.328Z,6.60
2022-10-14T12:10:51.199Z,4.32
2022-10-14T12:13:01.275Z,5.65
2022-10-14T12:15:17.853Z,4.28
2022-10-14T12:17:33.636Z,4.65
2022-10-14T12:19:42.337Z,3.80
2022-10-14T12:21:57.312Z,3.80
2022-10-14T12:24:10.933Z,5.70
2022-10-14T12:26:46.041Z,4.18
2022-10-14T12:28:56.806Z,4.10
2022-10-14T12:31:23.945Z,3.70
2022-10-14T12:33:32.660Z,5.18
2022-10-14T12:35:59.670Z,3.55
2022-10-14T12:38:16.553Z,3.08
2022-10-14T12:40:32.433Z,2.78
2022-10-14T12:43:01.232Z,4.20
2022-10-14T12:45:18.955Z,3.33
2022-10-14T12:47:32.180Z,2.90
2022-10-14T12:49:40.631Z,2.70
2022-10-14T12:51:56.784Z,3.00
2022-10-14T12:54:11.371Z,3.55
2022-10-14T12:56:34.663Z,2.60
2022-10-14T12:59:01.368Z,2.90
2022-10-14T13:01:21.732Z,3.50
2022-10-14T13:03:34.350Z,4.20
2022-10-14T13:05:45.274Z,4.25
2022-10-14T13:08:14.971Z,3.35
2022-10-14T13:10:48.070Z,3.30
2022-10-14T13:12:56.535Z,2.58
2022-10-14T13:15:29.062Z,4.30
2022-10-14T13:17:48.608Z,2.97
2022-10-14T13:19:57.285Z,4.13
2022-10-14T13:22:07.079Z,2.47
2022-10-14T13:24:20.305Z,8.98
2022-10-14T13:26:36.937Z,3.15
2022-10-14T13:28:53.988Z,3.63
2022-10-14T13:33:47.190Z,2.92
2022-10-14T13:36:07.380Z,3.03
2022-10-14T13:38:19.069Z,3.30
2022-10-14T13:40:35.276Z,3.45
2022-10-14T13:42:44.288Z,3.40
2022-10-14T13:44:52.836Z,3.30
2022-10-14T13:47:06.381Z,3.65
2022-10-14T13:49:20.538Z,3.42
2022-10-14T13:51:36.553Z,3.00
2022-10-14T13:53:54.151Z,2.70
2022-10-14T13:56:02.700Z,3.58
2022-10-14T13:58:15.513Z,2.40
2022-10-14T14:00:40.596Z,2.53
2022-10-14T14:02:57.693Z,2.10
2022-10-14T14:05:17.491Z,2.60
2022-10-14T14:10:05.494Z,2.63
2022-10-14T14:12:16.805Z,2.80
2022-10-14T14:14:27.988Z,2.83
2022-10-14T14:16:39.539Z,4.35
2022-10-14T14:19:04.342Z,2.72
2022-10-14T14:21:18.030Z,3.00
2022-10-14T14:23:26.421Z,2.55
2022-10-14T14:25:36.073Z,2.03
2022-10-14T14:27:54.832Z,2.17
2022-10-14T14:30:08.602Z,2.42
2022-10-14T14:32:19.653Z,3.75
2022-10-14T14:34:31.127Z,2.67
2022-10-14T14:36:51.243Z,2.20
2022-10-14T14:39:05.300Z,3.45
2022-10-14T14:41:22.765Z,2.80
2022-10-14T14:43:36.490Z,3.03
2022-10-14T14:45:48.803Z,3.17
2022-10-14T14:47:59.937Z,3.35
2022-10-14T14:50:31.403Z,4.20
2022-10-14T14:52:41.872Z,3.50
2022-10-14T14:54:53.831Z,3.60
2022-10-14T14:57:07.553Z,4.18
2022-10-14T14:59:26.488Z,5.25
2022-10-14T15:01:34.924Z,3.60
2022-10-14T15:04:13.758Z,3.25
2022-10-14T15:06:26.584Z,4.10
2022-10-14T15:08:38.179Z,3.03
2022-10-14T15:10:51.330Z,2.25
2022-10-14T15:13:02.787Z,2.53
2022-10-14T15:15:30.583Z,2.35
2022-10-14T15:17:41.340Z,2.47
2022-10-14T15:19:50.185Z,2.08
2022-10-14T15:22:29.913Z,2.42
2022-10-14T15:24:59.869Z,2.20
2022-10-14T15:27:38.281Z,2.88
2022-10-14T15:29:46.777Z,2.47
2022-10-14T15:32:14.540Z,2.53
2022-10-14T15:34:25.190Z,2.30
2022-10-14T15:36:35.835Z,2.17
2022-10-14T15:38:44.263Z,2.30
2022-10-14T15:40:56.194Z,2.78
2022-10-14T15:43:04.806Z,2.65
2022-10-14T15:45:13.512Z,2.40
2022-10-14T15:47:22.836Z,3.17
2022-10-14T15:49:34.561Z,2.60
2022-10-14T15:51:42.730Z,2.35
2022-10-14T15:53:51.258Z,2.53
2022-10-14T15:56:02.863Z,2.55
2022-10-14T15:58:11.493Z,2.90
2022-10-14T16:00:22.669Z,2.80
2022-10-14T16:02:36.321Z,2.90
2022-10-14T16:05:07.243Z,2.90
2022-10-14T16:07:17.664Z,2.80
2022-10-14T16:09:27.930Z,3.08
2022-10-14T16:11:38.979Z,3.42
2022-10-14T16:13:47.229Z,3.67
2022-10-14T16:15:58.673Z,4.07
2022-10-14T16:18:08.985Z,4.15
2022-10-14T16:20:17.320Z,3.90
2022-10-14T16:22:26.149Z,3.35
2022-10-14T16:24:34.548Z,2.60
2022-10-14T16:26:47.495Z,2.72
2022-10-14T16:28:55.918Z,2.65
2022-10-14T16:31:04.586Z,2.80
2022-10-14T16:33:16.863Z,3.22
2022-10-14T16:35:25.256Z,2.60
2022-10-14T16:37:33.276Z,2.47
2022-10-14T16:39:41.480Z,1.95
2022-10-14T16:41:53.868Z,2.53
2022-10-14T16:44:02.121Z,2.53
2022-10-14T16:46:14.629Z,2.08
2022-10-14T16:48:24.364Z,3.63
2022-10-14T16:50:34.532Z,3.50
2022-10-14T16:52:55.224Z,3.20
2022-10-14T16:55:03.480Z,4.15
2022-10-14T16:57:15.013Z,4.43
2022-10-14T16:59:23.943Z,4.80
2022-10-14T17:01:32.619Z,4.95
2022-10-14T17:03:41.750Z,5.05
2022-10-14T17:05:52.012Z,5.00
2022-10-14T17:08:00.286Z,4.78
2022-10-14T17:10:10.300Z,4.57
2022-10-14T17:12:21.573Z,4.63
2022-10-14T17:14:31.290Z,5.38
2022-10-14T17:16:40.203Z,5.15
2022-10-14T17:18:56.333Z,5.13
2022-10-14T17:21:06.646Z,5.38
2022-10-14T17:23:14.998Z,5.50
2022-10-14T17:25:23.855Z,5.50
2022-10-14T17:27:34.918Z,5.38
2022-10-14T17:29:43.503Z,6.55
2022-10-14T17:31:52.075Z,5.93
2022-10-14T17:34:01.945Z,6.30
2022-10-14T17:36:11.992Z,5.95
2022-10-14T17:38:20.368Z,6.40
2022-10-14T17:40:33.966Z,6.45
2022-10-14T17:42:45.013Z,6.90
2022-10-14T17:44:53.158Z,8.68
2022-10-14T17:47:02.207Z,9.75
2022-10-14T17:49:11.268Z,8.18
2022-10-14T17:51:20.500Z,8.93
2022-10-14T17:53:29.172Z,9.20
2022-10-14T17:55:39.565Z,8.30
2022-10-14T17:57:50.516Z,7.75
2022-10-14T17:59:58.731Z,7.68
2022-10-14T18:02:09.776Z,8.05
2022-10-14T18:04:18.224Z,9.15
2022-10-14T18:06:29.268Z,7.53
2022-10-14T18:08:43.023Z,7.88
2022-10-14T18:10:51.445Z,7.28
2022-10-14T18:13:02.101Z,7.30
2022-10-14T18:15:12.325Z,6.85
2022-10-14T18:17:21.306Z,7.32
2022-10-14T18:19:30.829Z,6.93
2022-10-14T18:21:41.755Z,7.97
2022-10-14T18:23:50.315Z,7.93
2022-10-14T18:26:00.836Z,8.65
2022-10-14T18:28:11.847Z,9.60
2022-10-14T18:30:20.220Z,6.30
2022-10-14T18:32:28.212Z,5.68
2022-10-14T18:34:36.656Z,6.18
2022-10-14T18:36:45.177Z,5.03
2022-10-14T18:38:54.190Z,5.03
2022-10-14T18:41:04.014Z,5.28
2022-10-14T18:43:17.811Z,4.85
2022-10-14T18:45:26.193Z,6.20
2022-10-14T18:47:34.199Z,5.72
2022-10-14T18:49:42.771Z,5.60
2022-10-14T18:51:53.363Z,5.57
2022-10-14T18:54:03.668Z,5.80
2022-10-14T18:56:15.579Z,5.13
2022-10-14T18:58:26.650Z,3.45
2022-10-14T19:00:36.595Z,3.88
2022-10-14T19:02:44.958Z,3.53
2022-10-14T19:04:53.451Z,3.30
2022-10-14T19:07:01.460Z,2.63
2022-10-14T19:09:12.730Z,3.75
2022-10-14T19:11:22.813Z,3.35
2022-10-14T19:13:33.698Z,3.67
2022-10-14T19:15:51.426Z,3.35
2022-10-14T19:18:03.054Z,3.92
2022-10-14T19:20:11.202Z,3.53
2022-10-14T19:22:19.459Z,3.15
2022-10-14T19:24:27.366Z,3.25
2022-10-14T19:26:38.118Z,3.33
2022-10-14T19:28:50.031Z,4.10
2022-10-14T19:30:58.631Z,4.30
2022-10-14T19:33:06.963Z,4.05
2022-10-14T19:35:15.233Z,7.32
2022-10-14T19:37:24.019Z,3.60
2022-10-14T19:39:33.084Z,4.65
2022-10-14T19:41:43.402Z,4.45
2022-10-14T19:43:55.522Z,7.22
2022-10-14T19:46:09.111Z,4.90
2022-10-14T19:48:17.560Z,5.05
2022-10-14T19:50:25.805Z,4.63
2022-10-14T19:52:44.039Z,4.97
2022-10-14T19:54:52.216Z,5.57
2022-10-14T19:57:00.237Z,5.28
2022-10-14T19:59:13.582Z,5.65
2022-10-14T20:01:33.409Z,5.25
2022-10-14T20:03:42.234Z,5.10
2022-10-14T20:05:50.391Z,6.13
2022-10-14T20:08:10.773Z,5.40
2022-10-14T20:10:19.852Z,7.30
2022-10-14T20:12:28.325Z,5.38
2022-10-14T20:14:38.971Z,5.82
2022-10-14T20:16:47.786Z,5.90
2022-10-14T20:18:58.448Z,5.85
2022-10-14T20:21:08.275Z,5.97
2022-10-14T20:23:16.213Z,6.60
2022-10-14T20:25:24.513Z,5.40
2022-10-14T20:27:33.226Z,8.25
2022-10-14T20:29:44.027Z,6.05
2022-10-14T20:31:52.302Z,4.03
2022-10-14T20:34:00.841Z,6.70
2022-10-14T20:36:11.401Z,6.47
2022-10-14T20:38:19.356Z,3.90
2022-10-14T20:40:27.478Z,4.53
2022-10-14T20:42:36.820Z,3.58
2022-10-14T20:44:47.835Z,5.00
2022-10-14T20:46:56.187Z,3.90
2022-10-14T20:49:05.244Z,4.25
2022-10-14T20:51:15.248Z,4.05
2022-10-14T20:53:23.733Z,3.78
2022-10-14T20:55:31.987Z,3.90
2022-10-14T20:57:40.458Z,3.80
2022-10-14T20:59:51.087Z,4.57
2022-10-14T21:01:59.317Z,4.75
2022-10-14T21:04:10.166Z,4.88
2022-10-14T21:06:20.364Z,4.53
2022-10-14T21:08:28.610Z,4.55
2022-10-14T21:10:36.936Z,4.55
2022-10-14T21:12:48.072Z,5.43
2022-10-14T21:15:00.030Z,5.15
2022-10-14T21:17:08.069Z,7.03
2022-10-14T21:19:16.743Z,5.30
2022-10-14T21:21:25.539Z,5.22
2022-10-14T21:23:34.306Z,5.00
2022-10-14T21:25:42.552Z,5.43
2022-10-14T21:27:50.410Z,5.50
2022-10-14T21:30:02.514Z,5.35
2022-10-14T21:32:10.594Z,6.05
2022-10-14T21:34:19.916Z,5.88
2022-10-14T21:36:28.246Z,6.85
2022-10-14T21:38:36.866Z,7.13
2022-10-14T21:40:45.250Z,8.05
2022-10-14T21:42:53.268Z,8.00
2022-10-14T21:45:04.086Z,7.68
2022-10-14T21:47:12.461Z,7.00
2022-10-14T21:49:20.507Z,7.38
2022-10-14T21:51:31.424Z,8.05
2022-10-14T21:53:40.051Z,7.30
2022-10-14T21:55:55.525Z,7.10
2022-10-14T21:58:04.307Z,7.40
2022-10-14T22:00:16.164Z,8.98
2022-10-14T22:02:24.981Z,8.60
2022-10-14T22:04:35.982Z,8.45
2022-10-14T22:06:46.253Z,8.48
2022-10-14T22:08:56.701Z,7.35
2022-10-14T22:11:05.355Z,9.25
2022-10-14T22:13:13.963Z,9.07
2022-10-14T22:15:24.915Z,9.43
2022-10-14T22:17:33.163Z,9.85
2022-10-14T22:19:41.250Z,9.35
2022-10-14T22:21:50.294Z,10.27
2022-10-14T22:23:59.041Z,11.13
2022-10-14T22:26:08.395Z,7.07
2022-10-14T22:28:16.494Z,7.38
2022-10-14T22:30:27.538Z,5.88
2022-10-14T22:32:35.585Z,5.25
2022-10-14T22:34:45.274Z,5.38
2022-10-14T22:36:53.800Z,5.22
2022-10-14T22:39:03.856Z,4.38
2022-10-14T22:41:13.400Z,5.10
2022-10-14T22:43:21.468Z,5.07
2022-10-14T22:45:32.771Z,4.72
2022-10-14T22:47:41.831Z,4.68
2022-10-14T22:49:50.174Z,4.32
2022-10-14T22:51:58.889Z,4.22
2022-10-14T22:54:07.644Z,4.72
2022-10-14T22:56:18.694Z,3.92
2022-10-14T22:58:26.796Z,4.25
2022-10-14T23:02:49.054Z,5.47
2022-10-14T23:04:57.311Z,3.90
2022-10-14T23:07:06.971Z,3.30
2022-10-14T23:09:15.699Z,2.70
2022-10-14T23:11:25.556Z,3.78
2022-10-14T23:13:34.223Z,2.88
2022-10-14T23:15:45.198Z,2.60
2022-10-14T23:17:53.724Z,3.05
2022-10-14T23:20:01.986Z,3.05
2022-10-14T23:22:10.500Z,2.15
2022-10-14T23:24:18.521Z,2.47
2022-10-14T23:26:31.659Z,2.58
2022-10-14T23:28:42.151Z,2.60
2022-10-14T23:30:52.900Z,2.60
2022-10-14T23:33:01.010Z,2.10
2022-10-14T23:35:10.133Z,2.60
2022-10-14T23:37:18.699Z,2.80
2022-10-14T23:39:27.178Z,2.78
2022-10-14T23:41:35.269Z,2.50
2022-10-14T23:43:44.694Z,1.95
2022-10-14T23:45:58.719Z,2.38
2022-10-14T23:48:07.761Z,2.20
2022-10-14T23:50:16.188Z,2.97
2022-10-14T23:52:24.739Z,2.20
2022-10-14T23:54:33.093Z,2.60
2022-10-14T23:56:41.791Z,2.00
2022-10-14T23:58:50.385Z,2.00
